sensor_id;sensor_type;location;lat;lon;timestamp;P1;durP1;ratioP1;P2;durP2;ratioP2
6941;SDS011;3510;43.200;27.920;2022-08-05T00:02:17;18.40;;;14.52;;
6941;SDS011;3510;43.200;27.920;2022-08-05T00:04:44;16.63;;;15.05;;
6941;SDS011;3510;43.200;27.920;2022-08-05T00:07:12;17.88;;;14.55;;
6941;SDS011;3510;43.200;27.920;2022-08-05T00:09:38;17.93;;;14.80;;
6941;SDS011;3510;43.200;27.920;2022-08-05T00:12:06;18.15;;;15.38;;
6941;SDS011;3510;43.200;27.920;2022-08-05T00:14:33;17.58;;;15.88;;
6941;SDS011;3510;43.200;27.920;2022-08-05T00:17:01;21.50;;;16.30;;
6941;SDS011;3510;43.200;27.920;2022-08-05T00:19:28;18.08;;;15.65;;
6941;SDS011;3510;43.200;27.920;2022-08-05T00:21:55;18.98;;;15.88;;
6941;SDS011;3510;43.200;27.920;2022-08-05T00:24:23;18.67;;;16.63;;
6941;SDS011;3510;43.200;27.920;2022-08-05T00:26:50;18.80;;;16.27;;
6941;SDS011;3510;43.200;27.920;2022-08-05T00:29:17;18.60;;;16.52;;
6941;SDS011;3510;43.200;27.920;2022-08-05T00:31:46;19.08;;;16.77;;
6941;SDS011;3510;43.200;27.920;2022-08-05T00:34:15;22.85;;;17.48;;
6941;SDS011;3510;43.200;27.920;2022-08-05T00:36:42;22.20;;;18.25;;
6941;SDS011;3510;43.200;27.920;2022-08-05T00:39:10;21.15;;;17.92;;
6941;SDS011;3510;43.200;27.920;2022-08-05T00:41:37;22.88;;;17.95;;
6941;SDS011;3510;43.200;27.920;2022-08-05T00:44:11;21.20;;;17.45;;
6941;SDS011;3510;43.200;27.920;2022-08-05T00:46:39;19.57;;;16.90;;
6941;SDS011;3510;43.200;27.920;2022-08-05T00:49:06;22.08;;;17.02;;
6941;SDS011;3510;43.200;27.920;2022-08-05T00:51:35;18.50;;;16.52;;
6941;SDS011;3510;43.200;27.920;2022-08-05T00:54:02;18.95;;;16.92;;
6941;SDS011;3510;43.200;27.920;2022-08-05T00:56:29;18.45;;;16.52;;
6941;SDS011;3510;43.200;27.920;2022-08-05T00:58:56;21.90;;;16.88;;
6941;SDS011;3510;43.200;27.920;2022-08-05T01:01:23;20.55;;;16.88;;
6941;SDS011;3510;43.200;27.920;2022-08-05T01:03:50;20.85;;;17.25;;
6941;SDS011;3510;43.200;27.920;2022-08-05T01:06:18;19.50;;;17.50;;
6941;SDS011;3510;43.200;27.920;2022-08-05T01:08:47;24.47;;;17.20;;
6941;SDS011;3510;43.200;27.920;2022-08-05T01:11:16;24.35;;;16.80;;
6941;SDS011;3510;43.200;27.920;2022-08-05T01:13:50;20.63;;;16.52;;
6941;SDS011;3510;43.200;27.920;2022-08-05T01:16:26;26.88;;;16.58;;
6941;SDS011;3510;43.200;27.920;2022-08-05T01:18:58;18.08;;;16.17;;
6941;SDS011;3510;43.200;27.920;2022-08-05T01:21:49;19.50;;;15.17;;
6941;SDS011;3510;43.200;27.920;2022-08-05T01:24:34;17.38;;;15.70;;
6941;SDS011;3510;43.200;27.920;2022-08-05T01:30:43;22.27;;;15.65;;
6941;SDS011;3510;43.200;27.920;2022-08-05T01:33:16;21.67;;;17.13;;
6941;SDS011;3510;43.200;27.920;2022-08-05T01:35:46;20.30;;;17.13;;
6941;SDS011;3510;43.200;27.920;2022-08-05T01:38:15;21.60;;;17.58;;
6941;SDS011;3510;43.200;27.920;2022-08-05T01:40:45;18.83;;;16.98;;
6941;SDS011;3510;43.200;27.920;2022-08-05T01:43:18;19.30;;;16.48;;
6941;SDS011;3510;43.200;27.920;2022-08-05T01:45:46;19.13;;;16.80;;
6941;SDS011;3510;43.200;27.920;2022-08-05T01:48:15;17.45;;;15.60;;
6941;SDS011;3510;43.200;27.920;2022-08-05T01:50:42;18.05;;;16.27;;
6941;SDS011;3510;43.200;27.920;2022-08-05T01:53:11;18.52;;;16.00;;
6941;SDS011;3510;43.200;27.920;2022-08-05T01:55:41;18.67;;;16.38;;
6941;SDS011;3510;43.200;27.920;2022-08-05T01:58:11;18.55;;;16.60;;
6941;SDS011;3510;43.200;27.920;2022-08-05T02:00:43;19.90;;;16.13;;
6941;SDS011;3510;43.200;27.920;2022-08-05T02:03:16;17.88;;;16.02;;
6941;SDS011;3510;43.200;27.920;2022-08-05T02:05:47;17.98;;;16.23;;
6941;SDS011;3510;43.200;27.920;2022-08-05T02:08:16;17.80;;;15.68;;
6941;SDS011;3510;43.200;27.920;2022-08-05T02:10:43;18.40;;;16.42;;
6941;SDS011;3510;43.200;27.920;2022-08-05T02:13:17;17.83;;;16.08;;
6941;SDS011;3510;43.200;27.920;2022-08-05T02:15:59;18.35;;;16.50;;
6941;SDS011;3510;43.200;27.920;2022-08-05T02:18:31;18.23;;;15.70;;
6941;SDS011;3510;43.200;27.920;2022-08-05T02:21:05;17.65;;;15.95;;
6941;SDS011;3510;43.200;27.920;2022-08-05T02:23:36;16.98;;;15.23;;
6941;SDS011;3510;43.200;27.920;2022-08-05T02:26:06;18.45;;;16.00;;
6941;SDS011;3510;43.200;27.920;2022-08-05T02:28:39;16.67;;;14.98;;
6941;SDS011;3510;43.200;27.920;2022-08-05T02:31:10;16.88;;;15.13;;
6941;SDS011;3510;43.200;27.920;2022-08-05T02:33:41;16.98;;;15.07;;
6941;SDS011;3510;43.200;27.920;2022-08-05T02:36:15;16.25;;;14.85;;
6941;SDS011;3510;43.200;27.920;2022-08-05T02:38:46;18.27;;;14.88;;
6941;SDS011;3510;43.200;27.920;2022-08-05T02:41:14;17.95;;;14.57;;
6941;SDS011;3510;43.200;27.920;2022-08-05T02:43:43;15.32;;;13.82;;
6941;SDS011;3510;43.200;27.920;2022-08-05T02:46:13;15.25;;;13.63;;
6941;SDS011;3510;43.200;27.920;2022-08-05T02:48:43;15.38;;;13.77;;
6941;SDS011;3510;43.200;27.920;2022-08-05T02:51:11;15.40;;;13.85;;
6941;SDS011;3510;43.200;27.920;2022-08-05T02:53:40;14.98;;;13.60;;
6941;SDS011;3510;43.200;27.920;2022-08-05T02:56:09;15.52;;;14.13;;
6941;SDS011;3510;43.200;27.920;2022-08-05T02:58:37;15.00;;;13.80;;
6941;SDS011;3510;43.200;27.920;2022-08-05T03:01:06;15.30;;;13.83;;
6941;SDS011;3510;43.200;27.920;2022-08-05T03:03:37;15.25;;;13.70;;
6941;SDS011;3510;43.200;27.920;2022-08-05T03:06:07;14.73;;;13.50;;
6941;SDS011;3510;43.200;27.920;2022-08-05T03:08:36;15.07;;;13.48;;
6941;SDS011;3510;43.200;27.920;2022-08-05T03:11:14;14.60;;;13.23;;
6941;SDS011;3510;43.200;27.920;2022-08-05T03:13:42;15.80;;;14.40;;
6941;SDS011;3510;43.200;27.920;2022-08-05T03:16:09;15.93;;;14.50;;
6941;SDS011;3510;43.200;27.920;2022-08-05T03:18:38;11.23;;;10.30;;
6941;SDS011;3510;43.200;27.920;2022-08-05T03:21:05;14.27;;;13.13;;
6941;SDS011;3510;43.200;27.920;2022-08-05T03:23:33;13.77;;;12.73;;
6941;SDS011;3510;43.200;27.920;2022-08-05T03:26:01;15.75;;;14.38;;
6941;SDS011;3510;43.200;27.920;2022-08-05T03:28:30;15.20;;;13.90;;
6941;SDS011;3510;43.200;27.920;2022-08-05T03:30:58;15.15;;;13.75;;
6941;SDS011;3510;43.200;27.920;2022-08-05T03:33:27;13.95;;;12.95;;
6941;SDS011;3510;43.200;27.920;2022-08-05T03:35:56;12.60;;;11.43;;
6941;SDS011;3510;43.200;27.920;2022-08-05T03:38:24;14.20;;;12.90;;
6941;SDS011;3510;43.200;27.920;2022-08-05T03:40:53;11.95;;;10.77;;
6941;SDS011;3510;43.200;27.920;2022-08-05T03:43:20;9.25;;;8.65;;
6941;SDS011;3510;43.200;27.920;2022-08-05T03:45:51;5.78;;;5.47;;
6941;SDS011;3510;43.200;27.920;2022-08-05T03:48:18;6.38;;;5.97;;
6941;SDS011;3510;43.200;27.920;2022-08-05T03:50:49;6.50;;;5.90;;
6941;SDS011;3510;43.200;27.920;2022-08-05T03:53:24;5.50;;;5.10;;
6941;SDS011;3510;43.200;27.920;2022-08-05T03:55:58;7.50;;;7.00;;
6941;SDS011;3510;43.200;27.920;2022-08-05T03:58:29;8.07;;;7.40;;
6941;SDS011;3510;43.200;27.920;2022-08-05T04:00:58;6.25;;;5.65;;
6941;SDS011;3510;43.200;27.920;2022-08-05T04:03:28;5.45;;;5.15;;
6941;SDS011;3510;43.200;27.920;2022-08-05T04:06:02;5.65;;;5.30;;
6941;SDS011;3510;43.200;27.920;2022-08-05T04:08:32;5.07;;;4.72;;
6941;SDS011;3510;43.200;27.920;2022-08-05T04:11:00;4.85;;;4.45;;
6941;SDS011;3510;43.200;27.920;2022-08-05T04:13:41;4.75;;;4.35;;
6941;SDS011;3510;43.200;27.920;2022-08-05T04:16:23;4.50;;;4.30;;
6941;SDS011;3510;43.200;27.920;2022-08-05T04:18:51;5.00;;;4.70;;
6941;SDS011;3510;43.200;27.920;2022-08-05T04:21:18;5.28;;;5.00;;
6941;SDS011;3510;43.200;27.920;2022-08-05T04:23:47;4.40;;;4.20;;
6941;SDS011;3510;43.200;27.920;2022-08-05T04:26:14;5.13;;;4.65;;
6941;SDS011;3510;43.200;27.920;2022-08-05T04:28:42;5.05;;;4.75;;
6941;SDS011;3510;43.200;27.920;2022-08-05T04:31:09;4.88;;;4.47;;
6941;SDS011;3510;43.200;27.920;2022-08-05T04:33:36;4.60;;;4.40;;
6941;SDS011;3510;43.200;27.920;2022-08-05T04:36:04;4.85;;;4.47;;
6941;SDS011;3510;43.200;27.920;2022-08-05T04:38:34;4.50;;;4.30;;
6941;SDS011;3510;43.200;27.920;2022-08-05T04:41:03;4.80;;;4.60;;
6941;SDS011;3510;43.200;27.920;2022-08-05T04:43:31;5.00;;;4.60;;
6941;SDS011;3510;43.200;27.920;2022-08-05T04:45:58;5.00;;;4.68;;
6941;SDS011;3510;43.200;27.920;2022-08-05T04:48:25;4.80;;;4.50;;
6941;SDS011;3510;43.200;27.920;2022-08-05T04:50:52;5.18;;;4.63;;
6941;SDS011;3510;43.200;27.920;2022-08-05T04:53:19;6.35;;;4.93;;
6941;SDS011;3510;43.200;27.920;2022-08-05T04:55:46;4.95;;;4.60;;
6941;SDS011;3510;43.200;27.920;2022-08-05T04:58:17;5.40;;;5.05;;
6941;SDS011;3510;43.200;27.920;2022-08-05T05:00:44;4.95;;;4.65;;
6941;SDS011;3510;43.200;27.920;2022-08-05T05:03:11;5.28;;;4.82;;
6941;SDS011;3510;43.200;27.920;2022-08-05T05:05:40;5.85;;;4.75;;
6941;SDS011;3510;43.200;27.920;2022-08-05T05:08:09;5.63;;;5.13;;
6941;SDS011;3510;43.200;27.920;2022-08-05T05:10:49;5.47;;;5.17;;
6941;SDS011;3510;43.200;27.920;2022-08-05T05:13:18;5.07;;;4.70;;
6941;SDS011;3510;43.200;27.920;2022-08-05T05:15:45;5.30;;;5.00;;
6941;SDS011;3510;43.200;27.920;2022-08-05T05:18:26;5.30;;;4.88;;
6941;SDS011;3510;43.200;27.920;2022-08-05T05:21:06;5.60;;;5.10;;
6941;SDS011;3510;43.200;27.920;2022-08-05T05:23:34;5.28;;;4.85;;
6941;SDS011;3510;43.200;27.920;2022-08-05T05:26:14;6.10;;;5.50;;
6941;SDS011;3510;43.200;27.920;2022-08-05T05:28:43;5.22;;;4.88;;
6941;SDS011;3510;43.200;27.920;2022-08-05T05:31:25;6.50;;;5.07;;
6941;SDS011;3510;43.200;27.920;2022-08-05T05:34:05;6.70;;;5.60;;
6941;SDS011;3510;43.200;27.920;2022-08-05T05:36:32;5.68;;;5.28;;
6941;SDS011;3510;43.200;27.920;2022-08-05T05:38:59;6.10;;;5.60;;
6941;SDS011;3510;43.200;27.920;2022-08-05T05:41:40;5.72;;;5.22;;
6941;SDS011;3510;43.200;27.920;2022-08-05T05:47:19;5.47;;;5.07;;
6941;SDS011;3510;43.200;27.920;2022-08-05T05:49:46;5.70;;;5.30;;
6941;SDS011;3510;43.200;27.920;2022-08-05T05:52:13;5.50;;;5.10;;
6941;SDS011;3510;43.200;27.920;2022-08-05T05:54:54;5.32;;;5.03;;
6941;SDS011;3510;43.200;27.920;2022-08-05T05:57:21;5.57;;;5.17;;
6941;SDS011;3510;43.200;27.920;2022-08-05T06:02:46;5.60;;;5.10;;
6941;SDS011;3510;43.200;27.920;2022-08-05T06:05:27;5.15;;;4.82;;
6941;SDS011;3510;43.200;27.920;2022-08-05T06:07:54;5.20;;;4.90;;
6941;SDS011;3510;43.200;27.920;2022-08-05T06:10:22;5.10;;;4.80;;
6941;SDS011;3510;43.200;27.920;2022-08-05T06:12:49;5.28;;;4.97;;
6941;SDS011;3510;43.200;27.920;2022-08-05T06:15:18;5.60;;;5.15;;
6941;SDS011;3510;43.200;27.920;2022-08-05T06:17:45;5.20;;;4.90;;
6941;SDS011;3510;43.200;27.920;2022-08-05T06:20:12;4.45;;;4.25;;
6941;SDS011;3510;43.200;27.920;2022-08-05T06:22:39;5.50;;;5.10;;
6941;SDS011;3510;43.200;27.920;2022-08-05T06:25:06;5.22;;;4.93;;
6941;SDS011;3510;43.200;27.920;2022-08-05T06:27:33;5.93;;;5.43;;
6941;SDS011;3510;43.200;27.920;2022-08-05T06:30:01;5.90;;;5.60;;
6941;SDS011;3510;43.200;27.920;2022-08-05T06:32:30;5.80;;;5.30;;
6941;SDS011;3510;43.200;27.920;2022-08-05T06:34:57;5.80;;;5.40;;
6941;SDS011;3510;43.200;27.920;2022-08-05T06:37:24;5.55;;;5.22;;
6941;SDS011;3510;43.200;27.920;2022-08-05T06:39:54;5.40;;;5.00;;
6941;SDS011;3510;43.200;27.920;2022-08-05T06:42:21;5.82;;;5.47;;
6941;SDS011;3510;43.200;27.920;2022-08-05T06:44:48;11.05;;;5.47;;
6941;SDS011;3510;43.200;27.920;2022-08-05T06:47:15;15.15;;;5.63;;
6941;SDS011;3510;43.200;27.920;2022-08-05T06:49:43;4.85;;;4.55;;
6941;SDS011;3510;43.200;27.920;2022-08-05T06:52:10;5.22;;;4.95;;
6941;SDS011;3510;43.200;27.920;2022-08-05T06:54:37;5.35;;;4.57;;
6941;SDS011;3510;43.200;27.920;2022-08-05T06:57:04;5.20;;;4.90;;
6941;SDS011;3510;43.200;27.920;2022-08-05T06:59:31;11.38;;;5.28;;
6941;SDS011;3510;43.200;27.920;2022-08-05T07:01:58;8.15;;;5.20;;
6941;SDS011;3510;43.200;27.920;2022-08-05T07:04:25;5.60;;;5.00;;
6941;SDS011;3510;43.200;27.920;2022-08-05T07:06:54;6.43;;;5.10;;
6941;SDS011;3510;43.200;27.920;2022-08-05T07:09:21;5.28;;;4.80;;
6941;SDS011;3510;43.200;27.920;2022-08-05T07:11:48;5.13;;;4.73;;
6941;SDS011;3510;43.200;27.920;2022-08-05T07:14:15;5.10;;;4.80;;
6941;SDS011;3510;43.200;27.920;2022-08-05T07:17:05;5.65;;;5.35;;
6941;SDS011;3510;43.200;27.920;2022-08-05T07:19:32;6.65;;;4.50;;
6941;SDS011;3510;43.200;27.920;2022-08-05T07:22:00;5.50;;;4.68;;
6941;SDS011;3510;43.200;27.920;2022-08-05T07:24:27;4.43;;;4.22;;
6941;SDS011;3510;43.200;27.920;2022-08-05T07:26:54;6.78;;;4.70;;
6941;SDS011;3510;43.200;27.920;2022-08-05T07:29:21;4.95;;;4.30;;
6941;SDS011;3510;43.200;27.920;2022-08-05T08:03:42;4.75;;;4.45;;
6941;SDS011;3510;43.200;27.920;2022-08-05T08:06:09;6.40;;;5.10;;
6941;SDS011;3510;43.200;27.920;2022-08-05T08:08:36;5.40;;;4.20;;
6941;SDS011;3510;43.200;27.920;2022-08-05T08:11:03;4.45;;;4.20;;
6941;SDS011;3510;43.200;27.920;2022-08-05T08:13:32;4.85;;;4.45;;
6941;SDS011;3510;43.200;27.920;2022-08-05T08:15:59;4.93;;;4.57;;
6941;SDS011;3510;43.200;27.920;2022-08-05T08:18:26;5.50;;;4.90;;
6941;SDS011;3510;43.200;27.920;2022-08-05T08:20:53;9.32;;;5.50;;
6941;SDS011;3510;43.200;27.920;2022-08-05T08:23:20;5.53;;;5.13;;
6941;SDS011;3510;43.200;27.920;2022-08-05T08:25:48;5.70;;;4.75;;
6941;SDS011;3510;43.200;27.920;2022-08-05T08:28:15;5.57;;;5.10;;
6941;SDS011;3510;43.200;27.920;2022-08-05T08:30:44;5.57;;;4.88;;
6941;SDS011;3510;43.200;27.920;2022-08-05T08:33:11;6.40;;;5.07;;
6941;SDS011;3510;43.200;27.920;2022-08-05T08:35:38;5.13;;;4.72;;
6941;SDS011;3510;43.200;27.920;2022-08-05T08:38:05;4.93;;;4.50;;
6941;SDS011;3510;43.200;27.920;2022-08-05T08:40:33;4.60;;;4.40;;
6941;SDS011;3510;43.200;27.920;2022-08-05T08:43:00;6.78;;;5.40;;
6941;SDS011;3510;43.200;27.920;2022-08-05T08:45:29;5.40;;;5.07;;
6941;SDS011;3510;43.200;27.920;2022-08-05T08:47:58;5.63;;;4.90;;
6941;SDS011;3510;43.200;27.920;2022-08-05T08:50:30;5.70;;;4.95;;
6941;SDS011;3510;43.200;27.920;2022-08-05T08:53:00;5.70;;;5.20;;
6941;SDS011;3510;43.200;27.920;2022-08-05T08:55:30;5.22;;;4.90;;
6941;SDS011;3510;43.200;27.920;2022-08-05T08:57:58;6.03;;;4.35;;
6941;SDS011;3510;43.200;27.920;2022-08-05T09:00:26;5.47;;;5.03;;
6941;SDS011;3510;43.200;27.920;2022-08-05T09:02:54;4.88;;;4.38;;
6941;SDS011;3510;43.200;27.920;2022-08-05T09:05:24;5.10;;;4.70;;
6941;SDS011;3510;43.200;27.920;2022-08-05T09:07:51;5.32;;;4.80;;
6941;SDS011;3510;43.200;27.920;2022-08-05T09:10:19;5.05;;;4.65;;
6941;SDS011;3510;43.200;27.920;2022-08-05T09:12:47;7.07;;;4.35;;
6941;SDS011;3510;43.200;27.920;2022-08-05T09:15:14;5.00;;;4.70;;
6941;SDS011;3510;43.200;27.920;2022-08-05T09:17:44;4.75;;;4.45;;
6941;SDS011;3510;43.200;27.920;2022-08-05T09:20:12;5.47;;;4.88;;
6941;SDS011;3510;43.200;27.920;2022-08-05T09:25:44;5.13;;;4.63;;
6941;SDS011;3510;43.200;27.920;2022-08-05T09:28:13;4.55;;;4.35;;
6941;SDS011;3510;43.200;27.920;2022-08-05T09:30:51;8.38;;;4.70;;
6941;SDS011;3510;43.200;27.920;2022-08-05T09:33:20;5.32;;;4.53;;
6941;SDS011;3510;43.200;27.920;2022-08-05T09:35:57;9.38;;;5.55;;
6941;SDS011;3510;43.200;27.920;2022-08-05T09:38:27;12.18;;;7.50;;
6941;SDS011;3510;43.200;27.920;2022-08-05T09:41:00;6.95;;;5.90;;
6941;SDS011;3510;43.200;27.920;2022-08-05T09:43:30;6.82;;;6.05;;
6941;SDS011;3510;43.200;27.920;2022-08-05T09:46:00;6.15;;;5.65;;
6941;SDS011;3510;43.200;27.920;2022-08-05T09:48:30;6.00;;;5.47;;
6941;SDS011;3510;43.200;27.920;2022-08-05T09:51:05;7.40;;;5.45;;
6941;SDS011;3510;43.200;27.920;2022-08-05T09:56:13;7.10;;;6.45;;
6941;SDS011;3510;43.200;27.920;2022-08-05T09:58:57;7.05;;;5.47;;
6941;SDS011;3510;43.200;27.920;2022-08-05T10:01:25;5.93;;;5.22;;
6941;SDS011;3510;43.200;27.920;2022-08-05T10:03:54;6.10;;;5.60;;
6941;SDS011;3510;43.200;27.920;2022-08-05T10:06:24;6.60;;;5.77;;
6941;SDS011;3510;43.200;27.920;2022-08-05T10:08:53;10.68;;;5.55;;
6941;SDS011;3510;43.200;27.920;2022-08-05T10:11:20;5.97;;;5.47;;
6941;SDS011;3510;43.200;27.920;2022-08-05T10:13:48;12.18;;;6.22;;
6941;SDS011;3510;43.200;27.920;2022-08-05T10:16:27;7.47;;;4.88;;
6941;SDS011;3510;43.200;27.920;2022-08-05T10:18:56;5.63;;;5.13;;
6941;SDS011;3510;43.200;27.920;2022-08-05T10:21:24;5.57;;;5.13;;
6941;SDS011;3510;43.200;27.920;2022-08-05T10:23:53;5.80;;;4.70;;
6941;SDS011;3510;43.200;27.920;2022-08-05T10:26:21;7.45;;;5.90;;
6941;SDS011;3510;43.200;27.920;2022-08-05T10:28:49;5.88;;;5.32;;
6941;SDS011;3510;43.200;27.920;2022-08-05T10:31:16;6.63;;;4.82;;
6941;SDS011;3510;43.200;27.920;2022-08-05T10:33:43;5.57;;;5.22;;
6941;SDS011;3510;43.200;27.920;2022-08-05T10:36:24;7.70;;;5.20;;
6941;SDS011;3510;43.200;27.920;2022-08-05T10:39:01;5.05;;;4.50;;
6941;SDS011;3510;43.200;27.920;2022-08-05T10:41:31;6.18;;;5.10;;
6941;SDS011;3510;43.200;27.920;2022-08-05T10:44:17;6.97;;;5.13;;
6941;SDS011;3510;43.200;27.920;2022-08-05T10:46:47;5.40;;;5.00;;
6941;SDS011;3510;43.200;27.920;2022-08-05T10:49:16;4.63;;;4.10;;
6941;SDS011;3510;43.200;27.920;2022-08-05T10:51:44;8.23;;;5.05;;
6941;SDS011;3510;43.200;27.920;2022-08-05T10:54:14;6.22;;;4.70;;
6941;SDS011;3510;43.200;27.920;2022-08-05T10:56:43;7.95;;;5.63;;
6941;SDS011;3510;43.200;27.920;2022-08-05T10:59:15;5.22;;;4.82;;
6941;SDS011;3510;43.200;27.920;2022-08-05T11:01:44;5.53;;;5.03;;
6941;SDS011;3510;43.200;27.920;2022-08-05T11:04:26;6.85;;;4.97;;
6941;SDS011;3510;43.200;27.920;2022-08-05T11:07:20;4.93;;;4.70;;
6941;SDS011;3510;43.200;27.920;2022-08-05T11:16:23;12.13;;;6.38;;
6941;SDS011;3510;43.200;27.920;2022-08-05T11:21:54;7.03;;;6.43;;
6941;SDS011;3510;43.200;27.920;2022-08-05T11:31:23;10.13;;;6.07;;
6941;SDS011;3510;43.200;27.920;2022-08-05T11:34:04;10.88;;;5.60;;
6941;SDS011;3510;43.200;27.920;2022-08-05T11:36:43;5.95;;;5.45;;
6941;SDS011;3510;43.200;27.920;2022-08-05T11:39:16;5.43;;;5.03;;
6941;SDS011;3510;43.200;27.920;2022-08-05T11:42:06;8.32;;;5.45;;
6941;SDS011;3510;43.200;27.920;2022-08-05T11:44:35;6.47;;;6.00;;
6941;SDS011;3510;43.200;27.920;2022-08-05T11:47:04;6.78;;;5.50;;
6941;SDS011;3510;43.200;27.920;2022-08-05T11:49:32;6.45;;;5.40;;
6941;SDS011;3510;43.200;27.920;2022-08-05T11:51:59;8.18;;;5.47;;
6941;SDS011;3510;43.200;27.920;2022-08-05T11:54:27;9.65;;;5.55;;
6941;SDS011;3510;43.200;27.920;2022-08-05T11:56:58;5.80;;;5.40;;
6941;SDS011;3510;43.200;27.920;2022-08-05T11:59:28;5.93;;;5.43;;
6941;SDS011;3510;43.200;27.920;2022-08-05T12:01:59;11.55;;;6.22;;
6941;SDS011;3510;43.200;27.920;2022-08-05T12:04:36;5.85;;;5.45;;
6941;SDS011;3510;43.200;27.920;2022-08-05T12:07:05;11.15;;;6.10;;
6941;SDS011;3510;43.200;27.920;2022-08-05T12:09:35;6.40;;;5.80;;
6941;SDS011;3510;43.200;27.920;2022-08-05T12:12:04;6.65;;;6.10;;
6941;SDS011;3510;43.200;27.920;2022-08-05T12:14:37;5.78;;;5.32;;
6941;SDS011;3510;43.200;27.920;2022-08-05T12:17:08;6.13;;;5.65;;
6941;SDS011;3510;43.200;27.920;2022-08-05T12:19:42;5.15;;;4.78;;
6941;SDS011;3510;43.200;27.920;2022-08-05T12:22:11;42.42;;;16.95;;
6941;SDS011;3510;43.200;27.920;2022-08-05T12:24:39;6.68;;;6.18;;
6941;SDS011;3510;43.200;27.920;2022-08-05T12:27:07;5.13;;;4.63;;
6941;SDS011;3510;43.200;27.920;2022-08-05T12:29:35;4.45;;;4.15;;
6941;SDS011;3510;43.200;27.920;2022-08-05T12:32:03;7.28;;;5.40;;
6941;SDS011;3510;43.200;27.920;2022-08-05T12:34:32;7.80;;;4.95;;
6941;SDS011;3510;43.200;27.920;2022-08-05T12:37:02;5.55;;;4.82;;
6941;SDS011;3510;43.200;27.920;2022-08-05T12:39:35;6.00;;;5.60;;
6941;SDS011;3510;43.200;27.920;2022-08-05T12:42:02;5.22;;;4.75;;
6941;SDS011;3510;43.200;27.920;2022-08-05T12:44:34;8.85;;;5.40;;
6941;SDS011;3510;43.200;27.920;2022-08-05T12:47:03;13.15;;;5.43;;
6941;SDS011;3510;43.200;27.920;2022-08-05T12:49:39;10.35;;;5.57;;
6941;SDS011;3510;43.200;27.920;2022-08-05T12:52:10;6.97;;;5.15;;
6941;SDS011;3510;43.200;27.920;2022-08-05T12:54:38;6.47;;;5.13;;
6941;SDS011;3510;43.200;27.920;2022-08-05T12:57:06;5.72;;;5.32;;
6941;SDS011;3510;43.200;27.920;2022-08-05T12:59:43;5.90;;;5.40;;
6941;SDS011;3510;43.200;27.920;2022-08-05T13:02:15;5.75;;;5.35;;
6941;SDS011;3510;43.200;27.920;2022-08-05T13:04:45;6.05;;;5.03;;
6941;SDS011;3510;43.200;27.920;2022-08-05T13:07:14;7.30;;;5.65;;
6941;SDS011;3510;43.200;27.920;2022-08-05T13:09:46;8.52;;;5.28;;
6941;SDS011;3510;43.200;27.920;2022-08-05T13:12:15;6.60;;;5.80;;
6941;SDS011;3510;43.200;27.920;2022-08-05T13:14:44;6.22;;;5.80;;
6941;SDS011;3510;43.200;27.920;2022-08-05T13:17:15;9.15;;;5.43;;
6941;SDS011;3510;43.200;27.920;2022-08-05T13:19:57;6.90;;;6.28;;
6941;SDS011;3510;43.200;27.920;2022-08-05T13:22:29;10.57;;;5.75;;
6941;SDS011;3510;43.200;27.920;2022-08-05T13:24:58;15.75;;;5.82;;
6941;SDS011;3510;43.200;27.920;2022-08-05T13:27:26;5.03;;;4.50;;
6941;SDS011;3510;43.200;27.920;2022-08-05T13:29:55;11.40;;;5.07;;
6941;SDS011;3510;43.200;27.920;2022-08-05T13:32:23;7.20;;;5.68;;
6941;SDS011;3510;43.200;27.920;2022-08-05T13:34:50;9.48;;;5.50;;
6941;SDS011;3510;43.200;27.920;2022-08-05T13:37:18;7.00;;;5.20;;
6941;SDS011;3510;43.200;27.920;2022-08-05T13:39:56;6.53;;;5.40;;
6941;SDS011;3510;43.200;27.920;2022-08-05T13:42:24;10.02;;;5.43;;
6941;SDS011;3510;43.200;27.920;2022-08-05T13:44:52;5.80;;;4.95;;
6941;SDS011;3510;43.200;27.920;2022-08-05T13:47:21;7.85;;;6.35;;
6941;SDS011;3510;43.200;27.920;2022-08-05T13:49:49;10.35;;;6.63;;
6941;SDS011;3510;43.200;27.920;2022-08-05T13:52:18;6.30;;;5.43;;
6941;SDS011;3510;43.200;27.920;2022-08-05T13:54:46;11.48;;;6.35;;
6941;SDS011;3510;43.200;27.920;2022-08-05T13:57:14;7.72;;;5.43;;
6941;SDS011;3510;43.200;27.920;2022-08-05T13:59:42;5.90;;;5.20;;
6941;SDS011;3510;43.200;27.920;2022-08-05T14:02:10;6.93;;;5.25;;
6941;SDS011;3510;43.200;27.920;2022-08-05T14:07:51;6.95;;;6.15;;
6941;SDS011;3510;43.200;27.920;2022-08-05T14:10:32;6.32;;;5.63;;
6941;SDS011;3510;43.200;27.920;2022-08-05T14:13:13;8.60;;;6.80;;
6941;SDS011;3510;43.200;27.920;2022-08-05T14:15:54;7.75;;;6.00;;
6941;SDS011;3510;43.200;27.920;2022-08-05T14:18:34;13.85;;;5.82;;
6941;SDS011;3510;43.200;27.920;2022-08-05T14:21:15;5.97;;;5.45;;
6941;SDS011;3510;43.200;27.920;2022-08-05T14:26:43;9.30;;;5.18;;
6941;SDS011;3510;43.200;27.920;2022-08-05T14:29:10;5.25;;;4.68;;
6941;SDS011;3510;43.200;27.920;2022-08-05T14:31:37;8.02;;;5.07;;
6941;SDS011;3510;43.200;27.920;2022-08-05T14:34:04;8.00;;;5.55;;
6941;SDS011;3510;43.200;27.920;2022-08-05T14:36:31;5.93;;;5.40;;
6941;SDS011;3510;43.200;27.920;2022-08-05T14:38:58;5.95;;;5.50;;
6941;SDS011;3510;43.200;27.920;2022-08-05T14:41:25;5.85;;;5.28;;
6941;SDS011;3510;43.200;27.920;2022-08-05T14:43:54;5.57;;;5.28;;
6941;SDS011;3510;43.200;27.920;2022-08-05T14:46:21;7.68;;;6.18;;
6941;SDS011;3510;43.200;27.920;2022-08-05T14:48:48;7.85;;;5.97;;
6941;SDS011;3510;43.200;27.920;2022-08-05T14:51:16;7.07;;;6.40;;
6941;SDS011;3510;43.200;27.920;2022-08-05T14:53:43;5.53;;;5.13;;
6941;SDS011;3510;43.200;27.920;2022-08-05T14:56:10;5.57;;;5.10;;
6941;SDS011;3510;43.200;27.920;2022-08-05T14:58:37;5.43;;;5.13;;
6941;SDS011;3510;43.200;27.920;2022-08-05T15:01:07;5.85;;;5.00;;
6941;SDS011;3510;43.200;27.920;2022-08-05T15:03:37;5.75;;;5.07;;
6941;SDS011;3510;43.200;27.920;2022-08-05T15:06:05;5.78;;;5.38;;
6941;SDS011;3510;43.200;27.920;2022-08-05T15:08:32;6.78;;;6.18;;
6941;SDS011;3510;43.200;27.920;2022-08-05T15:10:59;6.72;;;6.22;;
6941;SDS011;3510;43.200;27.920;2022-08-05T15:13:26;6.70;;;5.30;;
6941;SDS011;3510;43.200;27.920;2022-08-05T15:15:55;9.75;;;6.43;;
6941;SDS011;3510;43.200;27.920;2022-08-05T15:18:23;7.95;;;5.70;;
6941;SDS011;3510;43.200;27.920;2022-08-05T15:20:50;7.65;;;6.85;;
6941;SDS011;3510;43.200;27.920;2022-08-05T15:23:18;6.68;;;5.70;;
6941;SDS011;3510;43.200;27.920;2022-08-05T15:25:46;9.30;;;6.53;;
6941;SDS011;3510;43.200;27.920;2022-08-05T15:28:13;7.03;;;6.13;;
6941;SDS011;3510;43.200;27.920;2022-08-05T15:30:41;13.65;;;6.55;;
6941;SDS011;3510;43.200;27.920;2022-08-05T15:33:09;8.95;;;6.18;;
6941;SDS011;3510;43.200;27.920;2022-08-05T15:35:37;6.07;;;5.53;;
6941;SDS011;3510;43.200;27.920;2022-08-05T15:38:08;5.82;;;5.40;;
6941;SDS011;3510;43.200;27.920;2022-08-05T15:40:36;5.97;;;5.45;;
6941;SDS011;3510;43.200;27.920;2022-08-05T15:43:03;8.18;;;7.45;;
6941;SDS011;3510;43.200;27.920;2022-08-05T15:45:30;5.80;;;5.50;;
6941;SDS011;3510;43.200;27.920;2022-08-05T15:47:57;6.28;;;5.78;;
6941;SDS011;3510;43.200;27.920;2022-08-05T15:50:24;6.18;;;5.68;;
6941;SDS011;3510;43.200;27.920;2022-08-05T15:52:53;7.47;;;5.95;;
6941;SDS011;3510;43.200;27.920;2022-08-05T15:55:20;5.90;;;5.57;;
6941;SDS011;3510;43.200;27.920;2022-08-05T15:57:51;6.03;;;5.63;;
6941;SDS011;3510;43.200;27.920;2022-08-05T16:00:18;9.88;;;7.10;;
6941;SDS011;3510;43.200;27.920;2022-08-05T16:02:45;6.90;;;6.30;;
6941;SDS011;3510;43.200;27.920;2022-08-05T16:05:12;7.25;;;6.45;;
6941;SDS011;3510;43.200;27.920;2022-08-05T16:07:39;6.63;;;5.95;;
6941;SDS011;3510;43.200;27.920;2022-08-05T16:10:08;8.73;;;6.25;;
6941;SDS011;3510;43.200;27.920;2022-08-05T16:12:49;7.32;;;6.70;;
6941;SDS011;3510;43.200;27.920;2022-08-05T16:15:16;9.02;;;8.10;;
6941;SDS011;3510;43.200;27.920;2022-08-05T16:17:45;7.35;;;6.75;;
6941;SDS011;3510;43.200;27.920;2022-08-05T16:20:26;6.70;;;6.05;;